Time;durP1;ratioP1;P1;durP2;ratioP2;P2;SDS_P1;SDS_P2;PMS_P1;PMS_P2;Temp;Humidity;BMP_temperature;BMP_pressure;BME280_temperature;BME280_humidity;BME280_pressure;Samples;Min_cycle;Max_cycle;Signal;HPM_P1;HPM_P2
2022/10/15 00:00:41;;;;;;;;;;;;;;;10.52;100.00;100702.34;5029585;28;20041;-41
2022/10/15 00:03:06;;;;;;;;;;;;;;;10.50;100.00;100704.31;5029264;28;20646;-43
2022/10/15 00:05:31;;;;;;;;;;;;;;;10.49;100.00;100704.47;5037161;28;20685;-42
2022/10/15 00:07:57;;;;;;;;;;;;;;;10.46;100.00;100702.97;5034177;28;20587;-42
2022/10/15 00:10:22;;;;;;;;;;;;;;;10.45;100.00;100698.63;5034740;28;19917;-44
2022/10/15 00:12:47;;;;;;;;;;;;;;;10.45;100.00;100706.63;5031728;28;19971;-41
2022/10/15 00:15:12;;;;;;;;;;;;;;;10.43;100.00;100705.97;5034508;28;19916;-40
2022/10/15 00:17:38;;;;;;;;;;;;;;;10.42;100.00;100702.47;5032085;28;19928;-43
2022/10/15 00:20:04;;;;;;;;;;;;;;;10.43;100.00;100703.31;5036223;28;19912;-43
2022/10/15 00:22:29;;;;;;;;;;;;;;;10.48;100.00;100700.16;5021914;28;19917;-44
2022/10/15 00:24:54;;;;;;;;;;;;;;;10.52;100.00;100706.81;5039758;28;19962;-44
2022/10/15 00:27:20;;;;;;;;;;;;;;;10.55;100.00;100707.31;5039820;28;19921;-46
2022/10/15 00:29:45;;;;;;;;;;;;;;;10.61;100.00;100708.53;5031804;28;19921;-41
2022/10/15 00:32:10;;;;;;;;;;;;;;;10.66;100.00;100698.19;5035754;28;19927;-41
2022/10/15 00:34:35;;;;;;;;;;;;;;;10.72;100.00;100708.19;5035032;28;20106;-41
2022/10/15 00:37:00;;;;;;;;;;;;;;;10.77;100.00;100702.34;5021497;28;19971;-44
2022/10/15 00:39:26;;;;;;;;;;;;;;;10.79;100.00;100706.53;5034260;28;20300;-43
2022/10/15 00:41:51;;;;;;;;;;;;;;;10.85;100.00;100706.88;5034272;28;20006;-43
2022/10/15 00:44:28;;;;;;;;;;;;;;;10.89;100.00;100708.19;5038074;28;20030;-44
2022/10/15 00:47:05;;;;;;;;;;;;;;;10.92;100.00;100721.22;5024809;28;19956;-43
2022/10/15 00:49:34;;;;;;;;;;;;;;;10.95;100.00;100713.72;5034849;28;19979;-42
2022/10/15 00:52:01;;;;;;;;;;;;;;;10.98;100.00;100705.38;5036767;28;19935;-43
2022/10/15 00:54:30;;;;;;;;;;;;;;;11.02;100.00;100709.38;5031665;28;19919;-46
2022/10/15 00:56:55;;;;;;;;;;;;;;;11.05;100.00;100710.03;5035315;28;19916;-44
2022/10/15 00:59:23;;;;;;;;;;;;;;;11.06;100.00;100712.53;5037836;28;19936;-42
2022/10/15 01:01:49;;;;;;;;;;;;;;;11.07;100.00;100708.88;5035266;28;19936;-47
2022/10/15 01:04:16;;;;;;;;;;;;;;;11.08;100.00;100697.16;5028626;28;19919;-40
2022/10/15 01:06:41;;;;;;;;;;;;;;;11.11;100.00;100707.53;5033355;28;20272;-42
2022/10/15 01:09:06;;;;;;;;;;;;;;;11.14;100.00;100704.50;5037097;28;19947;-42
2022/10/15 01:11:43;;;;;;;;;;;;;;;11.16;100.00;100705.19;5028920;28;20301;-45
2022/10/15 01:14:28;;;;;;;;;;;;;;;11.20;100.00;100695.84;5027317;28;19920;-40
2022/10/15 01:17:12;;;;;;;;;;;;;;;11.27;100.00;100695.13;5036454;28;19967;-42
2022/10/15 01:20:16;;;;;;;;;;;;;;;11.30;100.00;100689.47;5026468;28;20014;-42
2022/10/15 01:22:59;;;;;;;;;;;;;;;11.33;100.00;100686.44;4956945;28;20452;-44
2022/10/15 01:25:39;;;;;;;;;;;;;;;11.36;100.00;100686.94;4957324;28;20332;-41
2022/10/15 01:28:16;;;;;;;;;;;;;;;11.38;100.00;100682.25;5010023;28;19944;-43
2022/10/15 01:30:46;;;;;;;;;;;;;;;11.43;100.00;100681.75;5033786;28;19928;-42
2022/10/15 01:33:17;;;;;;;;;;;;;;;11.46;100.00;100676.06;5037484;28;19919;-42
2022/10/15 01:35:55;;;;;;;;;;;;;;;11.50;100.00;100674.69;5038910;28;19948;-41
2022/10/15 01:38:29;;;;;;;;;;;;;;;11.51;100.00;100670.22;5036693;28;20057;-42
2022/10/15 01:40:56;;;;;;;;;;;;;;;11.51;100.00;100671.03;5037736;28;19920;-41
2022/10/15 01:43:24;;;;;;;;;;;;;;;11.53;100.00;100678.88;5034538;28;19917;-43
2022/10/15 01:45:52;;;;;;;;;;;;;;;11.53;100.00;100679.72;5028742;28;19927;-41
2022/10/15 01:48:18;;;;;;;;;;;;;;;11.54;100.00;100681.41;5036651;28;20350;-42
2022/10/15 01:50:46;;;;;;;;;;;;;;;11.58;100.00;100681.88;5036724;28;20296;-44
2022/10/15 01:53:14;;;;;;;;;;;;;;;11.61;100.00;100684.22;5037258;28;19953;-41
2022/10/15 01:55:41;;;;;;;;;;;;;;;11.62;100.00;100677.84;5030820;28;19928;-45
2022/10/15 01:58:07;;;;;;;;;;;;;;;11.63;100.00;100676.03;5024597;28;20355;-41
2022/10/15 02:00:33;;;;;;;;;;;;;;;11.63;100.00;100663.47;5027741;28;20200;-42
2022/10/15 02:02:59;;;;;;;;;;;;;;;11.65;100.00;100668.66;5035639;28;20039;-46
2022/10/15 02:05:27;;;;;;;;;;;;;;;11.65;100.00;100655.28;5037513;28;19939;-44
2022/10/15 02:08:15;;;;;;;;;;;;;;;11.67;100.00;100662.13;5036483;28;19994;-43
2022/10/15 02:10:57;;;;;;;;;;;;;;;11.69;100.00;100661.94;5030303;28;19925;-42
2022/10/15 02:13:41;;;;;;;;;;;;;;;11.71;100.00;100654.56;5028979;28;19917;-44
2022/10/15 02:16:11;;;;;;;;;;;;;;;11.71;100.00;100655.44;5031183;28;19939;-42
2022/10/15 02:18:44;;;;;;;;;;;;;;;11.72;100.00;100656.25;5033540;28;19912;-45
2022/10/15 02:21:13;;;;;;;;;;;;;;;11.73;100.00;100652.59;5029283;28;19932;-44
2022/10/15 02:23:38;;;;;;;;;;;;;;;11.69;100.00;100641.41;5033334;28;19939;-42
2022/10/15 02:26:05;;;;;;;;;;;;;;;11.72;100.00;100640.19;5027571;28;19917;-44
2022/10/15 02:28:33;;;;;;;;;;;;;;;11.72;100.00;100640.19;5020031;28;19921;-43
2022/10/15 02:30:58;;;;;;;;;;;;;;;11.67;100.00;100635.38;5035516;28;19924;-43
2022/10/15 02:33:24;;;;;;;;;;;;;;;11.73;100.00;100639.19;5037615;28;20114;-44
2022/10/15 02:35:50;;;;;;;;;;;;;;;11.73;100.00;100641.88;5037280;28;20749;-43
2022/10/15 02:38:16;;;;;;;;;;;;;;;11.73;100.00;100637.34;5030573;28;20233;-42
2022/10/15 02:40:42;;;;;;;;;;;;;;;11.72;100.00;100627.66;5035826;28;19917;-44
2022/10/15 02:43:08;;;;;;;;;;;;;;;11.73;100.00;100617.81;5036124;28;19928;-43
2022/10/15 02:45:34;;;;;;;;;;;;;;;11.73;100.00;100615.94;5036716;28;20402;-43
2022/10/15 02:47:59;;;;;;;;;;;;;;;11.74;100.00;100608.75;5036447;28;19912;-43
2022/10/15 02:50:24;;;;;;;;;;;;;;;11.74;100.00;100611.44;5031414;28;19920;-44
2022/10/15 02:52:50;;;;;;;;;;;;;;;11.73;100.00;100607.94;5030362;28;20421;-45
2022/10/15 02:55:15;;;;;;;;;;;;;;;11.75;100.00;100602.41;5036910;28;19913;-42
2022/10/15 02:57:40;;;;;;;;;;;;;;;11.75;100.00;100597.06;5036122;28;19919;-41
2022/10/15 03:00:06;;;;;;;;;;;;;;;11.74;100.00;100604.25;5036828;28;19917;-42
2022/10/15 03:02:31;;;;;;;;;;;;;;;11.73;100.00;100601.75;5034346;28;20753;-42
2022/10/15 03:04:56;;;;;;;;;;;;;;;11.73;100.00;100596.41;5036950;28;20338;-45
2022/10/15 03:07:22;;;;;;;;;;;;;;;11.71;100.00;100595.72;5037237;28;20600;-44
2022/10/15 03:09:47;;;;;;;;;;;;;;;11.69;100.00;100589.72;5036210;28;19964;-42
2022/10/15 03:12:12;;;;;;;;;;;;;;;11.68;100.00;100586.22;5025219;28;20019;-41
2022/10/15 03:14:37;;;;;;;;;;;;;;;11.65;100.00;100591.09;5029965;28;20269;-41
2022/10/15 03:17:02;;;;;;;;;;;;;;;11.61;100.00;100597.78;5024800;28;19924;-42
2022/10/15 03:19:28;;;;;;;;;;;;;;;11.58;100.00;100601.66;5029727;28;19943;-43
2022/10/15 03:21:53;;;;;;;;;;;;;;;11.56;100.00;100601.00;5032506;28;20365;-42
2022/10/15 03:24:18;;;;;;;;;;;;;;;11.55;100.00;100605.47;5036455;28;20416;-45
2022/10/15 03:26:43;;;;;;;;;;;;;;;11.54;100.00;100603.84;5036585;28;20035;-44
2022/10/15 03:29:08;;;;;;;;;;;;;;;11.54;100.00;100600.31;5035188;28;19931;-42
2022/10/15 03:31:33;;;;;;;;;;;;;;;11.53;100.00;100593.31;5035198;28;19924;-43
2022/10/15 03:33:59;;;;;;;;;;;;;;;11.51;100.00;100601.50;5035689;28;20349;-44
2022/10/15 03:36:24;;;;;;;;;;;;;;;11.49;100.00;100597.31;5030981;28;19924;-44
2022/10/15 03:38:49;;;;;;;;;;;;;;;11.46;100.00;100593.16;5035046;28;19917;-42
2022/10/15 03:41:14;;;;;;;;;;;;;;;11.47;100.00;100586.81;5027461;28;20019;-45
2022/10/15 03:43:39;;;;;;;;;;;;;;;11.46;100.00;100587.81;5033995;28;19940;-45
2022/10/15 03:46:04;;;;;;;;;;;;;;;11.46;100.00;100587.00;5039822;28;20011;-43
2022/10/15 03:48:30;;;;;;;;;;;;;;;11.45;100.00;100578.13;5036607;28;20039;-45
2022/10/15 03:50:55;;;;;;;;;;;;;;;11.44;100.00;100586.31;5039362;28;20376;-44
2022/10/15 03:53:21;;;;;;;;;;;;;;;11.40;100.00;100577.81;5038407;28;20106;-43
2022/10/15 03:55:47;;;;;;;;;;;;;;;11.37;100.00;100570.97;5040284;28;19913;-42
2022/10/15 03:58:12;;;;;;;;;;;;;;;11.34;100.00;100578.50;5034769;28;20347;-42
2022/10/15 04:00:40;;;;;;;;;;;;;;;11.32;100.00;100578.69;5032310;28;20262;-43
2022/10/15 04:03:05;;;;;;;;;;;;;;;11.31;100.00;100574.31;5039673;28;20003;-43
2022/10/15 04:05:30;;;;;;;;;;;;;;;11.30;100.00;100572.69;5030974;28;20309;-45
2022/10/15 04:07:56;;;;;;;;;;;;;;;11.28;100.00;100568.50;5036516;28;19921;-42
2022/10/15 04:10:21;;;;;;;;;;;;;;;11.28;100.00;100579.19;5036741;28;19924;-43
2022/10/15 04:12:46;;;;;;;;;;;;;;;11.31;100.00;100576.19;5032159;28;20318;-42
2022/10/15 04:15:11;;;;;;;;;;;;;;;11.33;100.00;100590.19;5030624;28;20400;-44
2022/10/15 04:17:37;;;;;;;;;;;;;;;11.36;100.00;100584.50;5038321;28;20344;-44
2022/10/15 04:20:03;;;;;;;;;;;;;;;11.38;100.00;100590.50;5039409;28;20403;-41
2022/10/15 04:22:29;;;;;;;;;;;;;;;11.43;100.00;100593.50;5039688;28;19925;-47
2022/10/15 04:24:54;;;;;;;;;;;;;;;11.49;100.00;100591.97;5021429;28;19966;-43
2022/10/15 04:27:19;;;;;;;;;;;;;;;11.54;100.00;100594.94;5038282;28;20356;-42
2022/10/15 04:29:46;;;;;;;;;;;;;;;11.58;100.00;100594.44;5037841;28;20240;-44
2022/10/15 04:32:12;;;;;;;;;;;;;;;11.58;100.00;100591.78;5022396;28;19917;-41
2022/10/15 04:34:38;;;;;;;;;;;;;;;11.66;100.00;100593.59;5030821;28;19969;-42
2022/10/15 04:37:03;;;;;;;;;;;;;;;11.70;100.00;100594.91;5039522;28;19912;-46
2022/10/15 04:39:28;;;;;;;;;;;;;;;11.77;100.00;100595.03;5031211;28;20365;-42
2022/10/15 04:41:53;;;;;;;;;;;;;;;11.80;100.00;100594.69;5037638;28;19928;-45
2022/10/15 04:44:19;;;;;;;;;;;;;;;11.84;100.00;100589.81;5034145;28;19963;-46
2022/10/15 04:46:44;;;;;;;;;;;;;;;11.87;100.00;100586.78;5029863;28;19917;-44
2022/10/15 04:49:09;;;;;;;;;;;;;;;11.89;100.00;100582.91;5036542;28;19917;-46
2022/10/15 04:51:34;;;;;;;;;;;;;;;11.95;100.00;100589.47;5039356;28;20011;-44
2022/10/15 04:54:00;;;;;;;;;;;;;;;11.96;100.00;100592.94;5038583;28;19913;-44
2022/10/15 04:56:25;;;;;;;;;;;;;;;11.97;100.00;100586.59;5036632;28;19920;-42
2022/10/15 04:58:50;;;;;;;;;;;;;;;12.01;100.00;100590.59;5030229;28;19947;-43
2022/10/15 05:01:17;;;;;;;;;;;;;;;12.02;100.00;100592.25;5032021;28;19916;-44
2022/10/15 05:03:43;;;;;;;;;;;;;;;12.05;100.00;100591.88;5020837;28;19916;-43
2022/10/15 05:06:10;;;;;;;;;;;;;;;12.07;100.00;100587.22;5034049;28;19927;-42
2022/10/15 05:08:35;;;;;;;;;;;;;;;12.08;100.00;100588.84;5016973;28;20419;-44
2022/10/15 05:11:02;;;;;;;;;;;;;;;12.09;100.00;100579.81;5004351;28;19921;-46
2022/10/15 05:13:27;;;;;;;;;;;;;;;12.11;100.00;100588.50;5016500;28;19913;-43
2022/10/15 05:15:52;;;;;;;;;;;;;;;12.12;100.00;100585.66;5011464;28;19924;-42
2022/10/15 05:18:17;;;;;;;;;;;;;;;12.16;100.00;100594.16;5018286;28;19924;-42
2022/10/15 05:20:43;;;;;;;;;;;;;;;12.18;100.00;100594.00;5012606;28;20059;-42
2022/10/15 05:23:08;;;;;;;;;;;;;;;12.19;100.00;100593.81;5019600;28;19925;-42
2022/10/15 05:25:33;;;;;;;;;;;;;;;12.19;100.00;100593.81;5018047;28;20039;-43
2022/10/15 05:27:58;;;;;;;;;;;;;;;12.22;100.00;100603.31;5018192;28;20251;-44
2022/10/15 05:30:23;;;;;;;;;;;;;;;12.23;100.00;100595.09;5012541;28;20284;-43
2022/10/15 05:32:52;;;;;;;;;;;;;;;12.22;100.00;100585.44;5014776;28;20029;-41
2022/10/15 05:35:18;;;;;;;;;;;;;;;12.27;100.00;100599.13;5013547;28;19917;-42
2022/10/15 05:37:43;;;;;;;;;;;;;;;12.26;100.00;100589.41;4999411;28;19928;-42
2022/10/15 05:40:08;;;;;;;;;;;;;;;12.27;100.00;100596.44;5011971;28;19914;-44
2022/10/15 05:42:34;;;;;;;;;;;;;;;12.29;100.00;100589.06;5018175;28;19984;-42
2022/10/15 05:44:59;;;;;;;;;;;;;;;12.32;100.00;100588.69;5015697;28;20386;-44
2022/10/15 05:47:24;;;;;;;;;;;;;;;12.37;100.00;100596.19;5014989;28;19921;-42
2022/10/15 05:49:50;;;;;;;;;;;;;;;12.36;100.00;100594.53;5016722;28;19987;-41
2022/10/15 05:52:15;;;;;;;;;;;;;;;12.36;100.00;100593.69;5017932;28;19913;-42
2022/10/15 05:54:41;;;;;;;;;;;;;;;12.33;100.00;100584.16;5015686;28;19926;-44
2022/10/15 05:57:06;;;;;;;;;;;;;;;12.32;100.00;100591.38;5018137;28;19928;-43
2022/10/15 05:59:31;;;;;;;;;;;;;;;12.32;100.00;100586.03;5016106;28;19913;-41
2022/10/15 06:01:56;;;;;;;;;;;;;;;12.31;100.00;100583.53;5014847;28;19924;-44
2022/10/15 06:04:21;;;;;;;;;;;;;;;12.32;100.00;100583.34;5016819;28;20016;-41
2022/10/15 06:06:46;;;;;;;;;;;;;;;12.31;100.00;100581.66;5012770;28;20376;-42
2022/10/15 06:09:12;;;;;;;;;;;;;;;12.30;100.00;100585.38;5031724;28;20034;-43
2022/10/15 06:11:37;;;;;;;;;;;;;;;12.31;100.00;100586.19;5029830;28;19948;-41
2022/10/15 06:14:02;;;;;;;;;;;;;;;12.29;100.00;100581.03;5037698;28;20008;-41
2022/10/15 06:16:27;;;;;;;;;;;;;;;12.28;100.00;100584.69;5031140;28;20368;-42
2022/10/15 06:18:52;;;;;;;;;;;;;;;12.28;100.00;100587.38;5037532;28;19917;-43
2022/10/15 06:21:18;;;;;;;;;;;;;;;12.29;100.00;100583.69;5036787;28;20008;-42
2022/10/15 06:23:44;;;;;;;;;;;;;;;12.29;100.00;100581.03;5038103;28;19917;-49
2022/10/15 06:26:10;;;;;;;;;;;;;;;12.30;100.00;100593.41;5038236;28;19927;-42
2022/10/15 06:28:35;;;;;;;;;;;;;;;12.32;100.00;100587.84;5025867;28;19921;-41
2022/10/15 06:31:01;;;;;;;;;;;;;;;12.31;100.00;100595.06;5029037;28;19917;-42
2022/10/15 06:33:27;;;;;;;;;;;;;;;12.35;100.00;100592.03;5037821;28;20400;-42
2022/10/15 06:35:52;;;;;;;;;;;;;;;12.35;100.00;100589.34;5008686;28;20004;-42
2022/10/15 06:38:17;;;;;;;;;;;;;;;12.37;100.00;100596.19;5030693;28;19921;-45
2022/10/15 06:40:42;;;;;;;;;;;;;;;12.39;100.00;100587.97;5037354;28;20294;-43
2022/10/15 06:43:09;;;;;;;;;;;;;;;12.38;100.00;100580.97;5037164;28;19917;-45
2022/10/15 06:45:39;;;;;;;;;;;;;;;12.39;100.00;100585.28;5035085;28;19982;-42
2022/10/15 06:48:04;;;;;;;;;;;;;;;12.41;100.00;100584.09;5036809;28;20033;-42
2022/10/15 06:50:30;;;;;;;;;;;;;;;12.40;100.00;100579.75;5032365;28;20369;-42
2022/10/15 06:52:56;;;;;;;;;;;;;;;12.40;100.00;100578.94;5032689;28;20290;-45
2022/10/15 06:55:21;;;;;;;;;;;;;;;12.41;100.00;100583.28;5033656;28;20099;-43
2022/10/15 06:57:47;;;;;;;;;;;;;;;12.42;100.00;100592.97;5035190;28;19924;-44
2022/10/15 07:00:12;;;;;;;;;;;;;;;12.44;100.00;100596.28;5026310;28;19928;-43
2022/10/15 07:02:38;;;;;;;;;;;;;;;12.46;100.00;100596.97;5032397;28;20288;-41
2022/10/15 07:05:03;;;;;;;;;;;;;;;12.49;100.00;100585.88;5037045;28;19924;-45
2022/10/15 07:07:28;;;;;;;;;;;;;;;12.49;100.00;100593.91;5013512;28;20410;-42
2022/10/15 07:09:54;;;;;;;;;;;;;;;12.48;100.00;100590.41;5033746;28;19925;-43
2022/10/15 07:12:21;;;;;;;;;;;;;;;12.48;100.00;100584.22;5030119;28;19923;-44
2022/10/15 07:14:46;;;;;;;;;;;;;;;12.50;100.00;100590.22;5036036;28;20471;-42
2022/10/15 07:17:11;;;;;;;;;;;;;;;12.49;100.00;100599.25;5030529;28;19952;-42
2022/10/15 07:19:36;;;;;;;;;;;;;;;12.46;100.00;100597.78;5037614;28;19927;-45
2022/10/15 07:22:02;;;;;;;;;;;;;;;12.43;100.00;100598.16;5038426;28;19920;-42
2022/10/15 07:24:27;;;;;;;;;;;;;;;12.48;100.00;100595.75;5039899;28;19928;-43
2022/10/15 07:26:52;;;;;;;;;;;;;;;12.56;100.00;100594.03;5036854;28;20008;-42
2022/10/15 07:29:17;;;;;;;;;;;;;;;12.62;100.00;100588.78;5028663;28;20415;-45
2022/10/15 07:31:42;;;;;;;;;;;;;;;12.73;100.00;100581.31;5030171;28;19921;-43
2022/10/15 07:34:07;;;;;;;;;;;;;;;12.80;100.00;100579.59;5037313;28;20417;-44
2022/10/15 07:36:33;;;;;;;;;;;;;;;12.88;100.00;100577.66;5030199;28;19967;-43
2022/10/15 07:38:58;;;;;;;;;;;;;;;12.95;100.00;100569.72;5032740;28;19924;-40
2022/10/15 07:41:23;;;;;;;;;;;;;;;12.94;100.00;100570.72;5037735;28;19928;-43
2022/10/15 07:43:50;;;;;;;;;;;;;;;12.91;100.00;100567.59;5037554;28;20298;-42
2022/10/15 07:46:15;;;;;;;;;;;;;;;12.89;100.00;100559.72;5034053;28;20426;-45
2022/10/15 07:48:40;;;;;;;;;;;;;;;12.91;100.00;100556.88;5039964;28;20228;-42
2022/10/15 07:51:06;;;;;;;;;;;;;;;12.95;100.00;100560.84;5036109;28;19923;-43
2022/10/15 07:53:32;;;;;;;;;;;;;;;12.97;100.00;100562.31;5038557;28;19921;-44
2022/10/15 07:55:58;;;;;;;;;;;;;;;13.02;100.00;100567.97;5038152;28;20286;-41
2022/10/15 07:58:24;;;;;;;;;;;;;;;13.05;100.00;100558.72;5035537;28;20332;-41
2022/10/15 08:00:49;;;;;;;;;;;;;;;13.09;100.00;100551.97;5031790;28;20114;-43
2022/10/15 08:03:14;;;;;;;;;;;;;;;13.12;100.00;100548.94;5037426;28;20303;-41
2022/10/15 08:05:39;;;;;;;;;;;;;;;13.09;100.00;100545.78;5035718;28;20009;-44
2022/10/15 08:08:04;;;;;;;;;;;;;;;13.12;100.00;100548.94;5038006;28;19921;-43
2022/10/15 08:10:29;;;;;;;;;;;;;;;13.18;100.00;100561.59;5037014;28;19932;-42
2022/10/15 08:12:55;;;;;;;;;;;;;;;13.23;100.00;100548.44;5027708;28;19917;-42
2022/10/15 08:15:20;;;;;;;;;;;;;;;13.34;100.00;100541.84;5033090;28;20248;-42
2022/10/15 08:17:45;;;;;;;;;;;;;;;13.49;100.00;100540.97;5025495;28;20023;-44
2022/10/15 08:20:11;;;;;;;;;;;;;;;13.59;100.00;100533.44;5035500;28;19924;-42
2022/10/15 08:22:36;;;;;;;;;;;;;;;13.69;100.00;100530.47;5029151;28;20283;-43
2022/10/15 08:25:01;;;;;;;;;;;;;;;13.78;100.00;100543.59;5021111;28;19919;-44
2022/10/15 08:27:26;;;;;;;;;;;;;;;13.82;100.00;100541.34;5039527;28;19912;-42
2022/10/15 08:29:51;;;;;;;;;;;;;;;13.84;100.00;100544.69;5037566;28;19917;-41
2022/10/15 08:32:17;;;;;;;;;;;;;;;13.89;100.00;100538.75;5033252;28;19928;-43
2022/10/15 08:34:42;;;;;;;;;;;;;;;13.93;100.00;100543.56;5039233;28;19919;-44
2022/10/15 08:37:07;;;;;;;;;;;;;;;13.98;100.00;100537.59;5039230;28;20094;-43
2022/10/15 08:39:33;;;;;;;;;;;;;;;14.02;100.00;100538.03;5033431;28;20292;-43
2022/10/15 08:42:01;;;;;;;;;;;;;;;14.03;100.00;100526.28;5033670;28;20035;-44
2022/10/15 08:44:29;;;;;;;;;;;;;;;14.10;100.00;100527.16;5038482;28;19999;-42
2022/10/15 08:46:56;;;;;;;;;;;;;;;14.14;100.00;100531.16;5037180;28;19921;-43
2022/10/15 08:49:26;;;;;;;;;;;;;;;14.15;100.00;100528.28;5037462;28;20260;-45
2022/10/15 08:51:54;;;;;;;;;;;;;;;14.20;100.00;100524.16;5033373;28;20125;-41
2022/10/15 08:54:19;;;;;;;;;;;;;;;14.23;100.00;100521.09;5028960;28;20045;-45
2022/10/15 08:56:47;;;;;;;;;;;;;;;14.29;100.00;100523.84;5029110;28;19996;-45
2022/10/15 08:59:31;;;;;;;;;;;;;;;14.40;100.00;100519.78;5037592;28;19956;-44
2022/10/15 09:01:59;;;;;;;;;;;;;;;14.53;100.00;100513.72;5036831;28;20488;-46
2022/10/15 09:04:46;;;;;;;;;;;;;;;14.63;100.00;100508.00;5019086;28;19999;-46
2022/10/15 09:07:24;;;;;;;;;;;;;;;14.70;100.00;100504.34;5030755;28;19994;-41
2022/10/15 09:09:51;;;;;;;;;;;;;;;14.77;100.00;100507.06;5038592;28;19950;-45
2022/10/15 09:12:34;;;;;;;;;;;;;;;14.78;100.00;100503.34;5036365;28;19913;-43
2022/10/15 09:15:01;;;;;;;;;;;;;;;14.71;100.00;100500.63;5036883;28;19917;-46
2022/10/15 09:17:27;;;;;;;;;;;;;;;14.69;100.00;100499.16;5018745;28;19913;-43
2022/10/15 09:19:54;;;;;;;;;;;;;;;14.67;100.00;100495.84;5036229;28;19932;-42
2022/10/15 09:22:22;;;;;;;;;;;;;;;14.63;100.00;100494.56;5038679;28;19921;-43
2022/10/15 09:24:48;;;;;;;;;;;;;;;14.60;100.00;100492.28;5031988;28;19983;-42
2022/10/15 09:27:22;;;;;;;;;;;;;;;14.57;100.00;100493.47;5034053;28;19924;-43
2022/10/15 09:29:56;;;;;;;;;;;;;;;14.53;100.00;100490.34;5030692;28;19928;-46
2022/10/15 09:32:40;;;;;;;;;;;;;;;14.48;100.00;100487.41;5036531;28;19916;-45
2022/10/15 09:35:06;;;;;;;;;;;;;;;14.45;100.00;100484.28;5038611;28;19921;-43
2022/10/15 09:37:34;;;;;;;;;;;;;;;14.48;100.00;100479.34;5035779;28;20387;-46
2022/10/15 09:40:12;;;;;;;;;;;;;;;14.49;100.00;100474.81;5034222;28;20719;-46
2022/10/15 09:42:39;;;;;;;;;;;;;;;14.44;100.00;100470.00;5024593;28;19919;-45
2022/10/15 09:45:08;;;;;;;;;;;;;;;14.46;100.00;100472.50;5036059;28;19916;-45
2022/10/15 09:47:34;;;;;;;;;;;;;;;14.51;100.00;100470.91;5036280;28;20250;-46
2022/10/15 09:49:59;;;;;;;;;;;;;;;14.58;100.00;100478.16;5037861;28;19920;-45
2022/10/15 09:52:44;;;;;;;;;;;;;;;14.64;100.00;100475.56;5020006;28;21068;-41
2022/10/15 09:55:19;;;;;;;;;;;;;;;14.69;100.00;100470.41;5036453;28;19921;-44
2022/10/15 09:57:49;;;;;;;;;;;;;;;14.65;100.00;100476.41;5033211;28;20005;-44
2022/10/15 10:00:14;;;;;;;;;;;;;;;14.54;100.00;100467.84;5037216;28;19912;-44
2022/10/15 10:02:39;;;;;;;;;;;;;;;14.51;100.00;100462.00;5036490;28;19917;-43
2022/10/15 10:05:17;;;;;;;;;;;;;;;14.46;100.00;100456.38;5038189;28;19924;-43
2022/10/15 10:07:42;;;;;;;;;;;;;;;14.43;100.00;100457.63;5036708;28;20505;-43
2022/10/15 10:10:29;;;;;;;;;;;;;;;14.42;100.00;100455.94;5012775;28;20100;-43
2022/10/15 10:12:54;;;;;;;;;;;;;;;14.37;100.00;100455.69;5028322;28;19970;-43
2022/10/15 10:15:33;;;;;;;;;;;;;;;14.34;100.00;100456.09;5026001;28;19916;-42
2022/10/15 10:17:59;;;;;;;;;;;;;;;14.32;100.00;100455.47;5037650;28;19928;-44
2022/10/15 10:20:28;;;;;;;;;;;;;;;14.36;100.00;100449.50;5018634;28;19916;-44
2022/10/15 10:22:54;;;;;;;;;;;;;;;14.43;100.00;100456.78;5019092;28;19940;-44
2022/10/15 10:25:26;;;;;;;;;;;;;;;14.44;100.00;100458.44;5036045;28;19920;-46
2022/10/15 10:27:51;;;;;;;;;;;;;;;14.41;100.00;100462.38;5036915;28;20347;-43
2022/10/15 10:30:17;;;;;;;;;;;;;;;14.40;100.00;100452.63;5034011;28;19917;-44
2022/10/15 10:32:42;;;;;;;;;;;;;;;14.38;100.00;100461.94;5025235;28;19959;-42
2022/10/15 10:35:18;;;;;;;;;;;;;;;14.38;100.00;100454.69;5037710;28;19947;-44
2022/10/15 10:37:43;;;;;;;;;;;;;;;14.43;100.00;100451.41;5037074;28;19913;-43
2022/10/15 10:40:35;;;;;;;;;;;;;;;14.47;100.00;100458.88;5037040;28;20536;-44
2022/10/15 10:43:11;;;;;;;;;;;;;;;14.47;100.00;100466.94;5032219;28;19920;-44
2022/10/15 10:45:37;;;;;;;;;;;;;;;14.50;100.00;100463.03;5036063;28;19947;-44
2022/10/15 10:48:17;;;;;;;;;;;;;;;14.51;100.00;100459.31;5037283;28;19916;-45
2022/10/15 10:50:42;;;;;;;;;;;;;;;14.54;100.00;100464.28;5036914;28;19917;-46
2022/10/15 10:53:37;;;;;;;;;;;;;;;14.61;100.00;100449.06;5038877;28;20265;-46
2022/10/15 10:56:03;;;;;;;;;;;;;;;14.64;100.00;100448.69;5031661;28;19913;-44
2022/10/15 10:58:31;;;;;;;;;;;;;;;14.68;100.00;100455.34;5034022;28;19952;-42
2022/10/15 11:00:56;;;;;;;;;;;;;;;14.76;100.00;100454.31;5035657;28;19935;-46
2022/10/15 11:03:41;;;;;;;;;;;;;;;14.82;100.00;100456.22;5038079;28;19913;-43
2022/10/15 11:06:28;;;;;;;;;;;;;;;14.90;100.00;100444.47;5036842;28;19964;-44
2022/10/15 11:08:56;;;;;;;;;;;;;;;15.00;100.00;100444.09;5038401;28;19931;-43
2022/10/15 11:11:36;;;;;;;;;;;;;;;15.09;100.00;100442.94;5038945;28;20003;-44
2022/10/15 11:14:16;;;;;;;;;;;;;;;15.14;100.00;100442.28;5035792;28;20350;-43
2022/10/15 11:16:44;;;;;;;;;;;;;;;15.15;100.00;100436.72;5036060;28;20248;-45
2022/10/15 11:19:25;;;;;;;;;;;;;;;15.16;100.00;100437.56;5035948;28;19931;-42
2022/10/15 11:21:52;;;;;;;;;;;;;;;15.12;100.00;100442.50;5042489;28;20394;-42
2022/10/15 11:24:27;;;;;;;;;;;;;;;15.13;100.00;100429.91;5043397;28;19912;-43
2022/10/15 11:26:55;;;;;;;;;;;;;;;15.14;100.00;100436.91;5040715;28;20271;-44
2022/10/15 11:29:32;;;;;;;;;;;;;;;15.16;100.00;100441.09;5039946;28;19974;-45
2022/10/15 11:31:57;;;;;;;;;;;;;;;15.22;100.00;100442.13;5023468;28;20310;-42
2022/10/15 11:34:28;;;;;;;;;;;;;;;15.29;100.00;100441.13;5040251;28;19913;-43
2022/10/15 11:37:06;;;;;;;;;;;;;;;15.37;100.00;100441.97;5039872;28;20179;-47
2022/10/15 11:39:46;;;;;;;;;;;;;;;15.42;100.00;100440.31;5031633;28;19917;-44
2022/10/15 11:42:16;;;;;;;;;;;;;;;15.45;100.00;100439.09;5039753;28;20295;-44
2022/10/15 11:44:44;;;;;;;;;;;;;;;15.51;100.00;100442.84;5020930;28;20125;-44
2022/10/15 11:47:09;;;;;;;;;;;;;;;15.58;100.00;100433.75;5036970;28;20669;-43
2022/10/15 11:49:44;;;;;;;;;;;;;;;15.61;100.00;100438.75;5039730;28;20011;-44
2022/10/15 11:52:09;;;;;;;;;;;;;;;15.64;100.00;100427.53;5039915;28;20433;-43
2022/10/15 11:54:54;;;;;;;;;;;;;;;15.72;100.00;100431.09;5030885;28;20041;-44
2022/10/15 11:57:21;;;;;;;;;;;;;;;15.78;100.00;100428.44;5039239;28;20324;-46
2022/10/15 11:59:52;;;;;;;;;;;;;;;15.84;100.00;100432.16;5020486;28;19917;-44
2022/10/15 12:02:23;;;;;;;;;;;;;;;15.86;100.00;100427.38;5038138;28;20399;-48
2022/10/15 12:04:50;;;;;;;;;;;;;;;15.94;100.00;100429.06;5038082;28;19917;-44
2022/10/15 12:07:19;;;;;;;;;;;;;;;16.05;100.00;100441.91;5039555;28;19932;-41
2022/10/15 12:09:47;;;;;;;;;;;;;;;16.14;100.00;100429.03;5038654;28;19920;-41
2022/10/15 12:12:24;;;;;;;;;;;;;;;16.17;100.00;100429.47;5037368;28;19921;-43
2022/10/15 12:15:08;;;;;;;;;;;;;;;16.32;100.00;100425.72;5031663;28;19917;-45
2022/10/15 12:17:41;;;;;;;;;;;;;;;16.65;100.00;100425.66;5031345;28;20325;-42
2022/10/15 12:20:10;;;;;;;;;;;;;;;16.81;100.00;100421.66;5030042;28;19932;-41
2022/10/15 12:22:51;;;;;;;;;;;;;;;16.87;100.00;100430.78;5036870;28;19920;-44
2022/10/15 12:25:35;;;;;;;;;;;;;;;17.02;100.00;100419.75;5036097;28;20420;-45
2022/10/15 12:28:02;;;;;;;;;;;;;;;17.26;100.00;100413.63;5031713;28;20285;-44
2022/10/15 12:30:35;;;;;;;;;;;;;;;17.45;100.00;100411.03;5034139;28;20360;-43
2022/10/15 12:33:02;;;;;;;;;;;;;;;17.45;100.00;100414.56;5039787;28;20430;-45